Bei Facebook empfehlenBei Twitter postenGoogle plusPinterest

Das Wetter im Erzgebirge am 07.04.2015

Wetter und Klima am 07.04.2015 Holzhau im Erzgebirge (630m ü.NN)
Letzte gemessene Temperatur und Uhrzeit der Messung23:45:00 Uhr3.20 °C
Temperatur (Maximum / Höchstwert) und Uhrzeit der Messung16:30:00 Uhr9.30 °C
Temperatur (Minimum / Tiefstwert) und Uhrzeit der Messung07:15:00-8.10 °C
Errechneter Absolutwert der Temperaturschwankungen zwischen Tmin und Tmax des Tages17.40 K
Errechnete Tagesmitteltemperatur1.20313 °C
Gesamt - Niederschlag des Tages (in flüssiger Form)1.04 Liter / m²
Luftdruck (Maximum / Höchstwert) und Zeitpunkt der Messung10:45:00 Uhr1030.60 hPa
Luftdruck (Minimum / Tiefstwert) und Zeitpunkt der Messung23:45:00 Uhr1026.50 hPa
Errechneter Absolutwert der Luftdruckschwankungen des Tages4.10 hPa
Höchste gemessene Windgeschwindigkeit und Uhrzeit der Messung14:30:00 Uhr7.56 km/h
Errechnete Windhäufigkeit in Relation zu den Messwerten des Tages4.16667 %
Niedrigste Windkühle (Windchill) und Zeitpunkt der Messung07:15:00 Uhr-8.10 °C
Taupunkt (Maximum / Höchstwert) und Uhrzeit der Messung10:00:00 Uhr2.10 °C
Taupunkt (Minimum / Tiefstwert) und Uhrzeit der Messung07:15:00-9.80 °C
Anzahl der automatisch eingelesenen Messwerte 96

Detaillierte Wetter- und Klima- Messwerte für den 07.04.2015 in Holzhau im Erzgebirge (630m ü.NN)
ZeitTemperaturLuftdruckRel. LuftfeuchteWindWindrichtungWindchillTaupunktNiederschlag l/m²
23:45:003.20 °C1026.50 hPa81.00 %0.30 °C1.04
23:30:003.30 °C1026.80 hPa81.00 %0.40 °C1.04
23:15:003.10 °C1026.90 hPa81.00 %0.20 °C1.04
23:00:003.10 °C1026.70 hPa81.00 %0.20 °C1.04
22:45:002.90 °C1026.90 hPa80.00 %-0.20 °C1.04
22:30:002.80 °C1026.90 hPa80.00 %-0.30 °C1.04
22:15:002.90 °C1027.00 hPa78.00 %-0.50 °C1.04
22:00:003.10 °C1027.00 hPa78.00 %-0.40 °C1.04
21:45:003.20 °C1027.00 hPa77.00 %-0.40 °C1.04
21:30:002.90 °C1027.10 hPa77.00 %-0.70 °C1.04
21:15:002.60 °C1027.10 hPa75.00 %-1.40 °C1.04
21:00:002.60 °C1027.00 hPa74.00 %-1.60 °C1.04
20:45:002.30 °C1027.00 hPa72.00 %-2.20 °C1.04
20:30:002.90 °C1026.70 hPa69.00 %-2.20 °C1.04
20:15:003.70 °C1026.60 hPa67.00 %-1.80 °C1.04
20:00:004.30 °C1026.60 hPa65.00 %-1.70 °C1.04
19:45:004.90 °C1026.60 hPa63.00 %-1.50 °C1.04
19:30:005.50 °C1026.50 hPa62.00 %-1.20 °C1.04
19:15:005.80 °C1026.70 hPa61.00 %-1.10 °C1.04
19:00:006.10 °C1026.80 hPa60.00 %-1.10 °C1.04
18:45:006.60 °C1026.60 hPa58.00 %-1.10 °C1.04
18:30:007.10 °C1026.70 hPa57.00 %-0.80 °C1.04
18:15:007.40 °C1027.00 hPa55.00 %-1.00 °C1.04
18:00:007.90 °C1027.10 hPa54.00 %-0.80 °C1.04
17:45:008.50 °C1027.20 hPa53.00 %-0.50 °C1.04
17:30:008.50 °C1027.20 hPa53.00 %-0.50 °C1.04
17:15:008.60 °C1027.20 hPa53.00 %-0.40 °C1.04
17:00:008.60 °C1027.50 hPa52.00 %-0.70 °C1.04
16:45:008.80 °C1027.50 hPa53.00 %-0.20 °C1.04
16:30:009.30 °C1027.70 hPa52.00 %0.00 °C1.04
16:15:009.30 °C1027.70 hPa52.00 %0.00 °C1.04
16:00:009.20 °C1028.10 hPa51.00 %-0.40 °C1.04
15:45:009.20 °C1028.30 hPa53.00 %0.10 °C1.04
15:30:009.30 °C1028.30 hPa53.00 %0.20 °C1.04
15:15:008.80 °C1028.40 hPa53.00 %-0.20 °C1.04
15:00:008.30 °C1028.40 hPa54.00 %-0.40 °C1.04
14:45:008.30 °C1028.70 hPa56.00 %0.10 °C1.04
14:30:008.10 °C1028.70 hPa57.00 %7.56 km/hSW6.90 °C0.10 °C1.04
14:15:008.40 °C1029.10 hPa57.00 %0.36 km/hSSW8.40 °C0.40 °C1.04
14:00:008.20 °C1029.10 hPa57.00 %0.20 °C1.04
13:45:007.80 °C1029.20 hPa56.00 %5.40 km/hWSW7.10 °C-0.40 °C1.04
13:30:007.70 °C1029.30 hPa59.00 %0.20 °C1.04
13:15:007.90 °C1029.50 hPa60.00 %0.60 °C1.04
13:00:007.60 °C1029.40 hPa61.00 %0.60 °C1.04
12:45:007.60 °C1029.70 hPa61.00 %0.60 °C1.04
12:30:007.10 °C1029.80 hPa62.00 %0.30 °C1.04
12:15:006.90 °C1029.90 hPa64.00 %0.60 °C1.04
12:00:007.00 °C1029.90 hPa66.00 %1.10 °C1.04
11:45:006.10 °C1030.00 hPa69.00 %0.90 °C1.04
11:30:005.60 °C1030.40 hPa72.00 %1.00 °C1.04
11:15:005.30 °C1030.30 hPa73.00 %0.90 °C1.04
11:00:004.70 °C1030.30 hPa76.00 %0.80 °C1.04
10:45:004.30 °C1030.60 hPa77.00 %0.60 °C1.04
10:30:004.30 °C1030.60 hPa80.00 %1.20 °C1.04
10:15:003.80 °C1030.60 hPa85.00 %2.16 km/hSSW3.80 °C1.50 °C0.52
10:00:003.30 °C1030.60 hPa92.00 %2.10 °C0.52
09:45:002.30 °C1030.30 hPa92.00 %1.10 °C0.52
09:30:001.00 °C1030.40 hPa92.00 %-0.10 °C0.52
09:15:00-0.50 °C1030.40 hPa92.00 %-1.80 °C0.52
09:00:00-2.10 °C1030.60 hPa92.00 %-3.40 °C 
08:45:00-3.40 °C1030.40 hPa91.00 %-4.80 °C 
08:30:00-4.70 °C1030.40 hPa91.00 %-6.10 °C 
08:15:00-5.50 °C1030.50 hPa91.00 %-6.90 °C 
08:00:00-6.40 °C1030.30 hPa90.00 %-7.90 °C 
07:45:00-7.20 °C1030.10 hPa90.00 %-8.70 °C 
07:30:00-7.90 °C1030.10 hPa90.00 %-9.40 °C 
07:15:00-8.10 °C1029.90 hPa89.00 %-9.80 °C 
07:00:00-8.10 °C1029.80 hPa89.00 %-9.80 °C 
06:45:00-8.10 °C1029.60 hPa89.00 %-9.80 °C 
06:30:00-8.10 °C1029.70 hPa89.00 %-9.80 °C 
06:15:00-7.90 °C1029.40 hPa89.00 %-9.60 °C 
06:00:00-7.80 °C1029.40 hPa89.00 %-9.50 °C 
05:45:00-7.60 °C1029.40 hPa89.00 %-9.30 °C 
05:30:00-7.40 °C1029.40 hPa89.00 %-9.10 °C 
05:15:00-7.20 °C1029.20 hPa89.00 %-8.90 °C 
05:00:00-7.10 °C1029.20 hPa89.00 %-8.80 °C 
04:45:00-7.00 °C1029.10 hPa89.00 %-8.70 °C 
04:30:00-6.80 °C1028.90 hPa89.00 %-8.50 °C 
04:15:00-6.80 °C1028.90 hPa89.00 %-8.50 °C 
04:00:00-6.50 °C1028.70 hPa89.00 %-8.20 °C 
03:45:00-6.40 °C1028.70 hPa90.00 %-7.90 °C 
03:30:00-6.40 °C1028.70 hPa89.00 %-8.10 °C 
03:15:00-6.40 °C1028.70 hPa89.00 %-8.10 °C 
03:00:00-6.10 °C1028.70 hPa89.00 %-7.80 °C 
02:45:00-5.80 °C1028.70 hPa90.00 %-7.30 °C 
02:30:00-5.60 °C1028.90 hPa90.00 %-7.10 °C 
02:15:00-5.30 °C1028.50 hPa90.00 %-6.80 °C 
02:00:00-5.10 °C1028.50 hPa90.00 %-6.60 °C 
01:45:00-4.70 °C1028.80 hPa90.00 %-6.30 °C 
01:30:00-4.50 °C1028.80 hPa90.00 %-6.10 °C 
01:15:00-4.40 °C1028.70 hPa90.00 %-6.00 °C 
01:00:00-4.50 °C1028.70 hPa90.00 %-6.10 °C 
00:45:00-4.50 °C1028.40 hPa90.00 %-6.10 °C 
00:30:00-4.40 °C1028.40 hPa89.00 %-6.10 °C 
00:15:00-4.20 °C1027.90 hPa89.00 %-5.90 °C 
00:00:00-3.90 °C1028.00 hPa89.00 %-5.60 °C 

Permanenter Link zu dieser Seite: Wetter im Erzgebirge am 07.04.2015
Performance-Info: Die Erstellung der Seite / Statistik(en) / Tabelle(n) erforderte 5 Datenbankserver-Abfrage(n) und dauerte 123 Millisekunden. (Dieser Messwert ist von der Gesamt-Auslastung des Servers abhängig.)
Erzgebirge - Wetter | Erzgebirge - Wetter (Mobilgeräte) | Komplette Klimadatenbank